AirNav   ProFlight Series 2 Aviation Headset
 
 974 users online  

KEDN Enterprise Municipal Airport
Enterprise, Alabama, USA

GOING TO ENTERPRISE?


FAA INFORMATION EFFECTIVE 08 OCTOBER 2020

Location

FAA Identifier: EDN
Lat/Long: 31-17-59.0000N 085-53-59.4000W
31-17.983333N 085-53.990000W
31.2997222,-85.8998333
(estimated)
Elevation: 360.9 ft. / 110.0 m (surveyed)
Variation: 03W (2005)
From city: 3 miles W of ENTERPRISE, AL
Time zone: UTC -5 (UTC -6 during Standard Time)
Zip code: 36330

Airport Operations

Airport use: Open to the public
Activation date: 07/1955
Control tower: no
ARTCC: JACKSONVILLE CENTER
FSS: ANNISTON FLIGHT SERVICE STATION
NOTAMs facility: ANB (NOTAM-D service available)
Attendance: MONDAY - FRIDAY 0700 - 1700, ALL SATURDAY 0800 - 1700
Pattern altitude: 1160.9 ft. MSL
TPA: 800 FT AGL FOR CAT A AND B ACFT, 1500 FT AGL FOR CAT C ACFT.
Wind indicator: lighted
Segmented circle: yes
Lights: REIL RWY 05 & 23; PAPI RWY 05 & 23; MIRL RWY 5/23 OPER DUSK-2330; AFTER 2330 ACTVT - CTAF.
Beacon: white-green (lighted land airport)
Operates sunset to sunrise.

Airport Communications

CTAF/UNICOM: 122.8
WX AWOS-3PT: 118.9 (334-347-3524)
CAIRNS APPROACH: 133.45
CAIRNS DEPARTURE: 133.45
  • APCH/DEP SVC PRVDD BY JACKSONVILLE ARTCC ON FREQS 134.3/322.55 (DOTHAN RCAG) WHEN CAIRNS APCH/DEP CLSD.

Nearby radio navigation aids

VOR radial/distance  VOR name  Freq  Var
EDN at fieldENTERPRISE VOR116.6003W
OZRr285/9.1CAIRNS VOR/DME111.2003W
HEYr254/(13.4)HANCHEY VOR110.6003W
RRSr270/24.0WIREGRASS VORTAC111.6002E

 
NDB name  Hdg/Dist  Freq  Var  ID
BOLL WEEVIL122/4.835203WBVG -... ...- --.
RUCKR319/6.221203WOZ --- --..
LOWE248/8.826903WLOR .-.. --- .-.
HANCHEY253/13.422103WHYE .... -.-- .
JUDD093/25.226402WJUY .--- ..- -.--
BLOOD166/33.636504WTOI - --- ..

Airport Services

Fuel available: 100LL JET-A+
Parking: tiedowns
Airframe service: MINOR
Powerplant service: MINOR
Bottled oxygen: NONE
Bulk oxygen: NONE

Runway Information

Runway 5/23

Dimensions: 5080 x 100 ft. / 1548 x 30 m
Surface: asphalt, in good condition
Runway edge lights: medium intensity
Runway edge markings: MARKINGS ARE FAIR DUE TO FADING
RUNWAY 5  RUNWAY 23
Latitude: 31-17.724462N31-18.241587N
Longitude: 085-54.374587W085-53.606833W
Elevation: 342.4 ft.353.2 ft.
Traffic pattern: leftleft
Runway heading: 055 magnetic, 052 true235 magnetic, 232 true
Markings: nonprecision, in fair conditionnonprecision, in fair condition
Visual slope indicator: 2-light PAPI on left (3.00 degrees glide path)2-light PAPI on left (3.50 degrees glide path)
Runway end identifier lights: yesyes
Touchdown point: yes, no lightsyes, no lights
Obstructions: 12 ft. trees, 392 ft. from runway, 104 ft. left of centerline, 16:1 slope to clear29 ft. pole, 837 ft. from runway, 101 ft. right of centerline, 22:1 slope to clear

Airport Ownership and Management from official FAA records

Ownership: Publicly-owned
Owner: TOWN OF ENTERPRISE
P.O.BOX 311000
ENTERPRISE, AL 36331
Phone 334-347-1211
Manager: STACI HAYES
867 AVIATION BLVD.
ENTERPRISE, AL 36331
Phone 334-347-1211
PH: 334-348-2671

Airport Operational Statistics

Aircraft based on the field: 53
Single engine airplanes: 51
Multi engine airplanes: 1
Helicopters: 1
    
Aircraft operations: avg 119/day *
58% military
32% transient general aviation
10% local general aviation
<1% air taxi
* for 12-month period ending 14 August 2019

Additional Remarks

FOR CD CTC CAIRNS APCH AT 334-255-8402, WHEN APCH CLSD CTC JACKSONVILLE ARTCC AT 904-845-1592.

Instrument Procedures

NOTE: All procedures below are presented as PDF files. If you need a reader for these files, you should download the free Adobe Reader.

NOT FOR NAVIGATION. Please procure official charts for flight.
FAA instrument procedures published for use from 08 October 2020 at 0901Z to 05 November 2020 at 0900Z.

 
IAPs - Instrument Approach Procedures
RNAV (GPS) RWY 05   download (227KB)
VOR RWY 05   download (197KB)
NOTE: Special Take-Off Minimums/Departure Procedures apply   download (189KB)

Other nearby airports with instrument procedures:

KLOR - Lowe Army Heliport (Fort Rucker) (8 nm NE)
KOZR - Cairns Army Airfield (Fort Rucker) (10 nm E)
KHEY - Hanchey Army Heliport (Fort Rucker) (13 nm E)
33J - Geneva Municipal Airport (15 nm S)
71J - Ozark-Blackwell Field Airport (16 nm NE)
 
Loc | Ops | Rwys | IFR | FBO | Links
Com | Nav | Svcs | Stats | Notes

Continental Services
AirBoss

 
Area around KEDN (Enterprise Municipal Airport)
 
Road maps at: MapQuest Bing Google
 
Aerial photo
WARNING: Photo may not be current or correct
Aerial photo of KEDN (Enterprise Municipal Airport)
Photo by Brian Christopher
Taken late May 2008

Do you have a better or more recent aerial photo of Enterprise Municipal Airport that you would like to share? If so, please send us your photo.

 
Sectional chart

 
Airport distance calculator
Flying to Enterprise Municipal Airport? Find the distance to fly.

From to KEDN

Sunrise and sunset
Times for 24-Oct-2020
 Local
(UTC-5)
 Zulu
(UTC)
Morning civil twilight06:3011:30
Sunrise06:5511:55
Sunset18:0123:01
Evening civil twilight18:2523:25

Current date and time
Zulu (UTC)  25-Oct-2020 00:50:41
Local (UTC-5)  24-Oct-2020 19:50:41
 
METAR
KEDN 250035Z AUTO 00000KT 7SM SCT010 19/19 A2990 RMK AO2 T01920192
KSXS 
5nm NE 
242358Z AUTO 00000KT 10SM CLR 20/19 A2988 RMK AO2 SLP118 60002 T01970190 10220 20197 58002
KLOR 
8nm E 
250038Z AUTO 00000KT 1/2SM FG CLR 19/18 A2989 RMK AO2 VIS 1/2V3 SLP104 RVRNO
KOZR 
9nm E 
242356Z AUTO 00000KT 10SM CLR 20/20 A2990 RMK AO2 DZE00 SLP126 P0000 60015 T02000198 10217 20200 55000
KHEY 
13nm E 
250038Z AUTO 00000KT 1 3/4SM BR CLR 20/19 A2989 RMK AO2 VIS 1V1 3/4 SLP122
TAF
NOTAMs
Click for the latest NOTAMs
NOTAMs are issued by the DoD/FAA and will open in a separate window not controlled by AirNav.

 

 
 

FBO, Fuel Providers, and Aircraft Ground Support

  
 Business Name 
 
 Contact 
 
 Services / Description 
 
Fuel Prices
 
Comments
  
City of Enterprise (FBO) 334-348-2676
334-348-2673
Airport management, Aviation fuel, Aircraft parking (ramp or tiedown), Hangar leasing / sales, Flight training, Aircraft maintenance, Rental cars delivered, ...

More info about City of Enterprise (FBO)
Phillips 66
100LL Jet A
FS --- $2.35 
SS $3.27 $2.35 
 Updated 21-Oct-2020
 
   3 read write
FS=Full service
SS=Self service
Update Fuel Prices
 

Would you like to see your business listed on this page?

 If your business provides an interesting product or service to pilots, flight crews, aircraft, or users of the Enterprise Municipal Airport, you should consider listing it here.  To start the listing process, click on the button below
 
Add a business
 

Other Pages about Enterprise Municipal Airport

www.entercomp.com/...
 
Update a link
 
Copyright © AirNav, LLC. All rights reserved. Privacy Policy  Contact